createdAt,value
2022-10-31T05:16:44.209Z,100549.72
2022-10-31T05:19:29.324Z,100546.06
2022-10-31T05:22:16.003Z,100542.47
2022-10-31T05:25:32.958Z,100535.53
2022-10-31T05:28:03.756Z,100541.56
2022-10-31T05:30:32.613Z,100539.69
2022-10-31T05:32:59.861Z,100534.25
2022-10-31T05:36:05.313Z,100541.22
2022-10-31T05:38:54.794Z,100549.69
2022-10-31T05:41:24.997Z,100549.66
2022-10-31T05:43:54.111Z,100540.81
2022-10-31T05:46:27.162Z,100544.25
2022-10-31T05:49:13.593Z,100543.38
2022-10-31T05:51:59.100Z,100537.16
2022-10-31T05:54:39.190Z,100537.25
2022-10-31T05:57:06.004Z,100532.16
2022-10-31T05:59:32.666Z,100533.84
2022-10-31T06:02:01.057Z,100535.63
2022-10-31T06:04:47.260Z,100531.28
2022-10-31T06:07:13.876Z,100538.34
2022-10-31T06:09:40.270Z,100539.16
2022-10-31T06:12:07.396Z,100541.88
2022-10-31T06:14:54.829Z,100531.34
2022-10-31T06:17:27.248Z,100531.53
2022-10-31T06:20:28.704Z,100530.50
2022-10-31T06:23:04.494Z,100533.13
2022-10-31T06:25:33.755Z,100534.84
2022-10-31T06:28:00.258Z,100530.34
2022-10-31T06:30:35.639Z,100526.00
2022-10-31T06:33:04.707Z,100524.16
2022-10-31T06:35:36.910Z,100531.09
2022-10-31T06:38:05.370Z,100526.72
2022-10-31T06:40:40.965Z,100530.13
2022-10-31T06:43:21.576Z,100536.13
2022-10-31T06:49:43.523Z,100541.84
2022-10-31T06:53:21.452Z,100533.84
2022-10-31T06:55:58.129Z,100538.09
2022-10-31T06:58:25.065Z,100541.47
2022-10-31T07:00:55.099Z,100541.34
2022-10-31T07:03:24.868Z,100541.34
2022-10-31T07:05:57.643Z,100550.06
2022-10-31T07:08:24.958Z,100553.28
2022-10-31T07:10:55.340Z,100553.91
2022-10-31T07:13:33.988Z,100556.34
2022-10-31T07:16:16.492Z,100558.69
2022-10-31T07:18:43.476Z,100560.31
2022-10-31T07:21:15.657Z,100554.09
2022-10-31T07:23:42.221Z,100555.72
2022-10-31T07:26:30.479Z,100555.47
2022-10-31T07:28:57.384Z,100555.41
2022-10-31T07:31:26.021Z,100551.78
2022-10-31T07:33:55.317Z,100552.47
2022-10-31T07:36:41.865Z,100559.41
2022-10-31T07:39:14.735Z,100564.53
2022-10-31T07:42:51.595Z,100564.44
2022-10-31T07:45:36.766Z,100566.84
2022-10-31T07:48:26.170Z,100565.78
2022-10-31T07:51:11.252Z,100562.81
2022-10-31T07:54:10.386Z,100562.69
2022-10-31T07:56:44.698Z,100556.44
2022-10-31T07:59:12.853Z,100558.84
2022-10-31T08:01:44.701Z,100560.44
2022-10-31T08:04:58.586Z,100562.94
2022-10-31T08:07:58.915Z,100560.78
2022-10-31T08:10:27.413Z,100562.63
2022-10-31T08:13:24.594Z,100558.06
2022-10-31T08:16:04.266Z,100554.28
2022-10-31T08:18:58.341Z,100557.91
2022-10-31T08:21:27.902Z,100552.03
2022-10-31T08:24:24.479Z,100553.47
2022-10-31T08:27:12.824Z,100556.59
2022-10-31T08:29:47.589Z,100563.38
2022-10-31T08:32:20.023Z,100555.88
2022-10-31T08:35:06.482Z,100557.47
2022-10-31T08:38:03.926Z,100562.34
2022-10-31T08:40:34.154Z,100546.44
2022-10-31T08:43:08.026Z,100545.47
2022-10-31T08:45:38.406Z,100539.31
2022-10-31T08:48:18.069Z,100537.63
2022-10-31T08:50:45.969Z,100535.59
2022-10-31T08:53:20.887Z,100537.31
2022-10-31T08:55:57.788Z,100533.47
2022-10-31T08:58:26.644Z,100533.16
2022-10-31T09:01:00.878Z,100526.69
2022-10-31T09:03:29.979Z,100523.75
2022-10-31T09:05:58.915Z,100528.72
2022-10-31T09:08:27.772Z,100530.09
2022-10-31T09:10:57.372Z,100527.78
2022-10-31T09:13:44.128Z,100519.66
2022-10-31T09:16:29.472Z,100515.78
2022-10-31T09:18:56.261Z,100513.44
2022-10-31T09:21:23.216Z,100512.94
2022-10-31T09:23:49.832Z,100519.84
2022-10-31T09:26:16.494Z,100508.19
2022-10-31T09:29:06.360Z,100515.44
2022-10-31T09:31:45.091Z,100514.50
2022-10-31T09:34:46.337Z,100514.78
2022-10-31T09:37:20.403Z,100517.19
2022-10-31T09:39:51.957Z,100519.66
2022-10-31T09:42:55.912Z,100514.59
2022-10-31T09:45:53.670Z,100510.44
2022-10-31T09:48:51.637Z,100512.75
2022-10-31T09:51:28.627Z,100519.78
2022-10-31T09:54:33.758Z,100510.94
2022-10-31T09:58:00.626Z,100514.31
2022-10-31T10:00:27.812Z,100512.94
2022-10-31T10:03:33.070Z,100507.13
2022-10-31T10:06:47.319Z,100497.16
2022-10-31T10:09:32.359Z,100490.94
2022-10-31T10:13:06.418Z,100489.94
2022-10-31T10:16:00.903Z,100489.94
2022-10-31T10:18:44.543Z,100487.19
2022-10-31T10:21:17.006Z,100478.03
2022-10-31T10:24:10.863Z,100489.06
2022-10-31T10:26:44.218Z,100487.66
2022-10-31T10:29:43.578Z,100484.94
2022-10-31T10:32:19.226Z,100481.19
2022-10-31T10:34:51.516Z,100477.72
2022-10-31T10:37:45.973Z,100482.00
2022-10-31T10:40:42.614Z,100477.84
2022-10-31T10:43:38.492Z,100476.53
2022-10-31T10:46:30.484Z,100459.34
2022-10-31T10:49:25.340Z,100464.09
2022-10-31T10:52:20.294Z,100463.25
2022-10-31T10:55:04.031Z,100455.94
2022-10-31T10:57:39.201Z,100457.22
2022-10-31T11:00:25.031Z,100452.41
2022-10-31T11:03:19.221Z,100454.66
2022-10-31T11:05:54.216Z,100447.69
2022-10-31T11:08:33.193Z,100440.59
2022-10-31T11:11:08.279Z,100433.81
2022-10-31T11:13:43.177Z,100425.38
2022-10-31T11:16:43.723Z,100421.59
2022-10-31T11:19:17.725Z,100416.78
2022-10-31T11:22:09.998Z,100410.25
2022-10-31T11:24:41.434Z,100413.38
2022-10-31T11:27:28.555Z,100412.22
2022-10-31T11:30:06.906Z,100410.81
2022-10-31T11:32:36.691Z,100404.38
2022-10-31T11:35:12.198Z,100398.72
2022-10-31T11:37:44.103Z,100392.94
2022-10-31T11:40:20.431Z,100373.72
2022-10-31T11:42:50.978Z,100365.63
2022-10-31T11:45:24.103Z,100358.13
2022-10-31T11:47:56.652Z,100364.25
2022-10-31T11:50:53.416Z,100366.81
2022-10-31T11:53:26.853Z,100376.53
2022-10-31T11:56:44.800Z,100371.88
2022-10-31T11:59:31.384Z,100362.47
2022-10-31T12:02:19.712Z,100356.16
2022-10-31T12:04:55.106Z,100348.63
2022-10-31T12:07:25.921Z,100348.91
2022-10-31T12:09:52.670Z,100349.69
2022-10-31T12:12:46.094Z,100349.81
2022-10-31T12:15:26.207Z,100337.75
2022-10-31T12:18:10.947Z,100336.53
2022-10-31T12:20:51.158Z,100338.50
2022-10-31T12:23:17.720Z,100332.06
2022-10-31T12:25:54.800Z,100334.78
2022-10-31T12:28:32.456Z,100327.72
2022-10-31T12:31:41.136Z,100335.25
2022-10-31T12:34:50.530Z,100338.63
2022-10-31T12:37:50.824Z,100348.78
2022-10-31T12:40:58.682Z,100331.19
2022-10-31T12:43:43.669Z,100301.50
2022-10-31T12:46:32.519Z,100276.38
2022-10-31T12:49:36.070Z,100270.50
2022-10-31T12:52:11.571Z,100265.41
2022-10-31T12:55:17.722Z,100269.97
2022-10-31T12:57:49.566Z,100274.22
2022-10-31T13:00:19.182Z,100275.03
2022-10-31T13:03:13.576Z,100263.56
2022-10-31T13:05:49.148Z,100261.88
2022-10-31T13:08:21.079Z,100254.47
2022-10-31T13:10:53.156Z,100253.91
2022-10-31T13:13:37.634Z,100249.22
2022-10-31T13:16:19.462Z,100231.22
2022-10-31T13:18:55.422Z,100241.63
2022-10-31T13:21:43.828Z,100234.22
2022-10-31T13:24:17.307Z,100229.16
2022-10-31T13:26:52.415Z,100222.78
2022-10-31T13:29:36.885Z,100219.56
2022-10-31T13:32:08.113Z,100217.53
2022-10-31T13:34:39.564Z,100219.34
2022-10-31T13:37:12.215Z,100209.63
2022-10-31T13:39:51.345Z,100203.25
2022-10-31T13:42:32.542Z,100207.28
2022-10-31T13:45:13.496Z,100200.97
2022-10-31T13:47:42.185Z,100200.44
2022-10-31T13:50:19.331Z,100194.81
2022-10-31T13:52:47.373Z,100200.00
2022-10-31T13:55:38.958Z,100203.53
2022-10-31T13:58:33.873Z,100194.38
2022-10-31T14:01:25.745Z,100193.03
2022-10-31T14:04:18.075Z,100191.25
2022-10-31T14:07:06.863Z,100196.94
2022-10-31T14:09:40.938Z,100185.97
2022-10-31T14:12:35.126Z,100174.09
2022-10-31T14:15:10.553Z,100169.41
2022-10-31T14:17:48.760Z,100172.88
2022-10-31T14:20:15.178Z,100169.13
2022-10-31T14:22:43.012Z,100162.50
2022-10-31T14:25:33.693Z,100160.28
2022-10-31T14:28:20.082Z,100158.97
2022-10-31T14:30:58.491Z,100157.03
2022-10-31T14:33:28.669Z,100156.16
2022-10-31T14:35:59.343Z,100171.25
2022-10-31T14:38:32.175Z,100195.69
2022-10-31T14:41:36.254Z,100196.66
2022-10-31T14:44:40.539Z,100186.09
2022-10-31T14:47:33.657Z,100181.88
2022-10-31T14:50:25.193Z,100172.00
2022-10-31T14:52:55.712Z,100160.66
2022-10-31T14:55:23.885Z,100165.91
2022-10-31T14:58:09.046Z,100168.06
2022-10-31T15:00:37.115Z,100171.06
2022-10-31T15:03:19.521Z,100177.88
2022-10-31T15:05:52.325Z,100175.41
2022-10-31T15:08:47.756Z,100175.34
2022-10-31T15:11:17.243Z,100172.22
2022-10-31T15:14:03.121Z,100162.91
2022-10-31T15:16:35.779Z,100163.53
2022-10-31T15:19:09.024Z,100154.94
2022-10-31T15:21:46.657Z,100159.53
2022-10-31T15:24:19.424Z,100161.69
2022-10-31T15:26:50.149Z,100165.63
2022-10-31T15:29:25.644Z,100165.22
2022-10-31T15:32:25.973Z,100160.81
2022-10-31T15:35:10.993Z,100151.09
2022-10-31T15:38:08.125Z,100147.88
2022-10-31T15:40:41.072Z,100143.56
2022-10-31T15:43:17.171Z,100141.50
2022-10-31T15:45:47.899Z,100143.47
2022-10-31T15:48:21.939Z,100140.06
2022-10-31T15:50:59.703Z,100141.78
2022-10-31T15:53:30.994Z,100130.16
2022-10-31T15:56:01.788Z,100128.47
2022-10-31T15:58:29.538Z,100126.75
2022-10-31T16:01:02.005Z,100117.25
2022-10-31T16:03:33.271Z,100106.88
2022-10-31T16:06:01.826Z,100098.69
2022-10-31T16:08:31.231Z,100102.69
2022-10-31T16:11:01.447Z,100098.50
2022-10-31T16:13:33.054Z,100088.22
2022-10-31T16:19:01.204Z,100052.94
2022-10-31T16:21:32.126Z,100025.66
2022-10-31T16:24:06.475Z,100000.25
2022-10-31T16:26:42.814Z,99996.84
2022-10-31T16:29:33.634Z,100009.31
2022-10-31T16:32:00.107Z,100015.38
2022-10-31T16:34:27.270Z,100024.66
2022-10-31T16:36:54.123Z,100031.59
2022-10-31T16:39:21.166Z,100034.16
2022-10-31T16:41:52.008Z,100022.56
2022-10-31T16:44:22.898Z,99996.69
2022-10-31T16:47:13.860Z,99985.16
2022-10-31T16:49:40.365Z,99996.63
2022-10-31T16:52:07.161Z,99990.53
2022-10-31T16:54:33.732Z,99986.19
2022-10-31T16:57:00.917Z,99992.63
2022-10-31T16:59:28.056Z,99992.03
2022-10-31T17:01:55.549Z,99990.88
2022-10-31T17:04:23.268Z,99998.38
2022-10-31T17:06:49.817Z,100017.56
2022-10-31T17:09:16.303Z,100035.50
2022-10-31T17:11:49.336Z,100049.38
2022-10-31T17:14:17.436Z,100043.31
2022-10-31T17:16:43.939Z,100037.84
2022-10-31T17:19:11.815Z,100049.75
2022-10-31T17:21:39.377Z,100053.19
2022-10-31T17:24:06.469Z,100042.09
2022-10-31T17:26:33.180Z,100044.06
2022-10-31T17:29:01.916Z,100041.84
2022-10-31T17:31:32.854Z,100050.34
2022-10-31T17:34:02.632Z,100063.66
2022-10-31T17:36:31.606Z,100069.03
2022-10-31T17:38:58.210Z,100075.28
2022-10-31T17:41:24.689Z,100070.22
2022-10-31T17:43:58.396Z,100065.00
2022-10-31T17:46:24.836Z,100058.03
2022-10-31T17:48:51.305Z,100040.34
2022-10-31T17:51:17.815Z,100030.81
2022-10-31T17:53:44.252Z,100035.25
2022-10-31T17:56:11.000Z,100034.88
2022-10-31T17:58:37.980Z,100045.31
2022-10-31T18:01:24.059Z,100036.59
2022-10-31T18:04:18.309Z,100029.72
2022-10-31T18:06:49.912Z,100020.38
2022-10-31T18:09:16.654Z,100019.53
2022-10-31T18:11:48.256Z,100000.19
2022-10-31T18:15:09.239Z,100007.66
2022-10-31T18:18:33.344Z,100026.28
2022-10-31T18:20:59.822Z,100020.06
2022-10-31T18:23:26.305Z,100009.22
2022-10-31T18:25:54.286Z,100005.78
2022-10-31T18:36:58.181Z,100002.91
2022-10-31T18:39:24.793Z,99995.75
2022-10-31T18:41:51.315Z,99996.66
2022-10-31T18:44:24.124Z,99984.34
2022-10-31T18:46:50.655Z,99973.31
2022-10-31T18:49:22.473Z,99990.44
2022-10-31T18:51:50.302Z,100006.06
2022-10-31T18:54:17.028Z,99999.88
2022-10-31T18:56:43.950Z,99997.78
2022-10-31T18:59:11.228Z,100002.47
2022-10-31T19:01:37.881Z,100009.75
2022-10-31T19:04:04.713Z,100011.53
2022-10-31T19:06:31.473Z,100015.69
2022-10-31T19:09:00.731Z,100016.25
2022-10-31T19:11:33.909Z,100018.84
2022-10-31T19:14:00.972Z,100017.78
2022-10-31T19:16:27.822Z,100013.13
2022-10-31T19:18:59.800Z,100018.06
2022-10-31T19:21:26.337Z,100022.50
2022-10-31T19:23:56.291Z,100033.66
2022-10-31T19:26:23.500Z,100030.69
2022-10-31T19:28:50.128Z,100031.41
2022-10-31T19:31:18.121Z,100029.91
2022-10-31T19:33:45.489Z,100021.78
2022-10-31T19:36:14.911Z,100024.56
2022-10-31T19:38:43.700Z,100029.13
2022-10-31T19:41:18.088Z,100022.31
2022-10-31T19:43:45.015Z,100019.03
2022-10-31T19:46:22.316Z,100024.31
2022-10-31T19:49:12.751Z,100019.84
2022-10-31T19:51:39.776Z,100005.50
2022-10-31T19:54:07.766Z,100006.94
2022-10-31T19:56:34.717Z,100013.44
2022-10-31T19:59:02.691Z,100031.19
2022-10-31T20:01:29.464Z,100023.16
2022-10-31T20:03:55.976Z,100018.66
2022-10-31T20:06:26.611Z,100023.25
2022-10-31T20:08:55.604Z,100026.91
2022-10-31T20:11:27.433Z,100018.53
2022-10-31T20:13:58.909Z,100020.03
2022-10-31T20:16:26.970Z,100016.69
2022-10-31T20:18:54.092Z,100026.19
2022-10-31T20:21:23.696Z,100015.91
2022-10-31T20:24:01.327Z,100015.97
2022-10-31T20:26:29.098Z,100013.81
2022-10-31T20:28:56.859Z,100013.09
2022-10-31T20:31:25.900Z,100015.22
2022-10-31T20:33:53.524Z,100014.38
2022-10-31T20:36:21.273Z,100013.78
2022-10-31T20:38:47.950Z,100010.22
2022-10-31T20:41:23.640Z,100015.00
2022-10-31T20:43:50.268Z,100014.34
2022-10-31T20:46:19.317Z,100009.84
2022-10-31T20:48:46.678Z,100001.25
2022-10-31T20:51:18.609Z,100000.72
2022-10-31T20:53:45.153Z,100003.31
2022-10-31T20:56:26.030Z,99997.59
2022-10-31T20:58:54.708Z,100003.66
2022-10-31T21:01:30.632Z,100003.97
2022-10-31T21:03:58.522Z,100006.56
2022-10-31T21:06:25.972Z,100001.94
2022-10-31T21:08:56.519Z,100003.78
2022-10-31T21:11:25.635Z,99999.72
2022-10-31T21:13:52.682Z,99997.34
2022-10-31T21:16:31.256Z,100003.34
2022-10-31T21:19:00.952Z,100008.75
2022-10-31T21:21:32.959Z,100000.16
2022-10-31T21:24:06.016Z,100000.50
2022-10-31T21:26:35.690Z,99995.22
2022-10-31T21:29:04.070Z,100006.97
2022-10-31T21:31:31.300Z,99993.75
2022-10-31T21:33:58.101Z,100001.75
2022-10-31T21:36:26.140Z,99996.59
2022-10-31T21:38:54.099Z,100007.34
2022-10-31T21:41:21.052Z,100003.03
2022-10-31T21:43:49.662Z,99999.84
2022-10-31T21:46:19.187Z,99996.31
2022-10-31T21:48:46.069Z,99999.31
2022-10-31T21:51:18.250Z,100001.94
2022-10-31T21:54:03.323Z,100011.28
2022-10-31T21:56:30.209Z,100011.69
2022-10-31T21:58:56.606Z,100007.09
2022-10-31T22:01:25.000Z,100002.75
2022-10-31T22:03:51.622Z,99992.19
2022-10-31T22:06:18.165Z,100001.28
2022-10-31T22:08:45.568Z,99991.69
2022-10-31T22:11:14.875Z,99995.38
2022-10-31T22:13:43.594Z,99989.16
2022-10-31T22:16:15.587Z,99985.03
2022-10-31T22:18:43.233Z,99991.00
2022-10-31T22:21:12.126Z,99991.25
2022-10-31T22:23:39.408Z,99983.56
2022-10-31T22:26:14.930Z,99985.47
2022-10-31T22:28:46.864Z,99985.47
2022-10-31T22:31:16.490Z,99989.88
2022-10-31T22:33:43.863Z,99982.47
2022-10-31T22:36:12.590Z,99985.06
2022-10-31T22:38:40.912Z,99983.16
2022-10-31T22:41:09.140Z,99986.34
2022-10-31T22:43:35.663Z,99992.63
2022-10-31T22:46:04.936Z,99987.41
2022-10-31T22:48:36.555Z,99989.97
2022-10-31T22:51:14.787Z,99987.50
2022-10-31T22:53:42.030Z,99984.06
2022-10-31T22:56:10.289Z,99981.44
2022-10-31T22:58:37.139Z,99986.03
